createdAt,value
2023-01-17T00:01:24.093Z,94871.72
2023-01-17T00:03:50.813Z,94866.94
2023-01-17T00:06:17.525Z,94874.38
2023-01-17T00:08:44.258Z,94878.66
2023-01-17T00:11:10.974Z,94875.28
2023-01-17T00:13:37.679Z,94871.28
2023-01-17T00:16:04.399Z,94866.06
2023-01-17T00:18:31.109Z,94871.72
2023-01-17T00:20:57.765Z,94876.06
2023-01-17T00:23:24.469Z,94869.03
2023-01-17T00:25:51.160Z,94861.09
2023-01-17T00:28:17.786Z,94861.75
2023-01-17T00:30:44.421Z,94859.78
2023-01-17T00:33:11.133Z,94868.00
2023-01-17T00:35:37.749Z,94871.16
2023-01-17T00:38:04.439Z,94873.31
2023-01-17T00:40:31.087Z,94872.06
2023-01-17T00:42:57.733Z,94879.66
2023-01-17T00:45:24.429Z,94891.63
2023-01-17T00:47:53.091Z,94899.16
2023-01-17T00:50:19.869Z,94902.69
2023-01-17T00:52:46.663Z,94905.84
2023-01-17T00:55:13.280Z,94916.88
2023-01-17T00:57:39.972Z,94913.69
2023-01-17T01:00:06.676Z,94913.13
2023-01-17T01:02:33.388Z,94918.34
2023-01-17T01:05:00.141Z,94915.50
2023-01-17T01:07:26.806Z,94922.75
2023-01-17T01:09:53.521Z,94916.66
2023-01-17T01:12:20.191Z,94913.44
2023-01-17T01:14:46.916Z,94907.50
2023-01-17T01:17:13.558Z,94914.06
2023-01-17T01:19:40.371Z,94913.28
2023-01-17T01:22:07.102Z,94913.66
2023-01-17T01:24:33.774Z,94914.94
2023-01-17T01:27:00.483Z,94920.09
2023-01-17T01:29:27.186Z,94920.34
2023-01-17T01:31:53.959Z,94920.09
2023-01-17T01:34:20.626Z,94919.06
2023-01-17T01:36:47.264Z,94918.13
2023-01-17T01:39:13.933Z,94920.59
2023-01-17T01:41:40.600Z,94922.47
2023-01-17T01:44:07.250Z,94926.47
2023-01-17T01:46:33.875Z,94932.38
2023-01-17T01:49:00.528Z,94927.16
2023-01-17T01:51:27.132Z,94937.63
2023-01-17T01:53:53.903Z,94937.69
2023-01-17T01:56:20.581Z,94943.63
2023-01-17T01:58:47.330Z,94944.91
2023-01-17T02:01:14.015Z,94946.94
2023-01-17T02:03:40.833Z,94945.06
2023-01-17T02:06:07.511Z,94952.09
2023-01-17T02:08:34.150Z,94943.69
2023-01-17T02:11:00.820Z,94953.28
2023-01-17T02:13:27.495Z,94957.97
2023-01-17T02:15:54.173Z,94966.72
2023-01-17T02:18:20.880Z,94958.34
2023-01-17T02:20:49.514Z,94962.75
2023-01-17T02:23:16.185Z,94960.06
2023-01-17T02:25:43.594Z,94967.63
2023-01-17T02:28:10.393Z,94973.13
2023-01-17T02:30:37.109Z,94974.06
2023-01-17T02:33:03.807Z,94967.38
2023-01-17T02:35:30.462Z,94962.75
2023-01-17T02:37:57.120Z,94963.31
2023-01-17T02:40:23.779Z,94960.34
2023-01-17T02:42:50.395Z,94956.94
2023-01-17T02:45:17.154Z,94955.38
2023-01-17T02:47:43.850Z,94953.91
2023-01-17T02:50:10.515Z,94953.97
2023-01-17T02:52:37.153Z,94951.88
2023-01-17T02:55:03.834Z,94967.72
2023-01-17T02:57:30.508Z,94958.09
2023-01-17T02:59:57.208Z,94960.72
2023-01-17T03:02:23.893Z,94955.63
2023-01-17T03:04:50.605Z,94957.56
2023-01-17T03:07:17.288Z,94961.31
2023-01-17T03:09:43.996Z,94957.78
2023-01-17T03:12:10.657Z,94958.59
2023-01-17T03:14:37.331Z,94961.28
2023-01-17T03:17:04.002Z,94963.38
2023-01-17T03:19:30.705Z,94962.44
2023-01-17T03:21:57.394Z,94952.31
2023-01-17T03:24:24.035Z,94967.84
2023-01-17T03:26:50.670Z,94960.44
2023-01-17T03:29:17.377Z,94959.78
2023-01-17T03:31:44.057Z,94961.16
2023-01-17T03:34:10.701Z,94960.41
2023-01-17T03:36:37.367Z,94971.28
2023-01-17T03:39:04.058Z,94957.16
2023-01-17T03:41:30.739Z,94967.25
2023-01-17T03:43:58.381Z,94960.28
2023-01-17T03:46:25.075Z,94956.00
2023-01-17T03:48:51.762Z,94963.31
2023-01-17T03:51:18.501Z,94959.09
2023-01-17T03:53:45.168Z,94961.41
2023-01-17T03:56:11.875Z,94966.94
2023-01-17T03:58:38.591Z,94959.91
2023-01-17T04:01:05.306Z,94964.56
2023-01-17T04:03:32.042Z,94959.19
2023-01-17T04:05:58.872Z,94963.97
2023-01-17T04:08:25.594Z,94953.88
2023-01-17T04:10:52.295Z,94950.13
2023-01-17T04:13:19.023Z,94958.66
2023-01-17T04:15:45.695Z,94969.44
2023-01-17T04:18:12.378Z,94970.72
2023-01-17T04:20:39.036Z,94967.06
2023-01-17T04:23:05.788Z,94970.19
2023-01-17T04:25:32.456Z,94968.25
2023-01-17T04:27:59.175Z,94971.47
2023-01-17T04:30:25.847Z,94970.22
2023-01-17T04:32:52.526Z,94967.97
2023-01-17T04:35:19.192Z,94973.47
2023-01-17T04:37:45.977Z,94970.00
2023-01-17T04:40:12.656Z,94977.03
2023-01-17T04:42:39.290Z,94979.41
2023-01-17T04:45:06.016Z,94978.19
2023-01-17T04:47:32.693Z,94977.97
2023-01-17T04:49:59.375Z,94975.50
2023-01-17T04:52:26.020Z,94972.75
2023-01-17T04:54:52.668Z,94976.50
2023-01-17T04:57:19.327Z,94980.28
2023-01-17T04:59:45.961Z,94981.59
2023-01-17T05:02:12.653Z,94986.53
2023-01-17T05:04:39.325Z,94989.13
2023-01-17T05:07:05.985Z,94991.50
2023-01-17T05:09:32.617Z,94995.34
2023-01-17T05:11:59.300Z,94993.91
2023-01-17T05:14:25.977Z,94998.38
2023-01-17T05:16:52.632Z,95012.72
2023-01-17T05:19:20.960Z,95021.41
2023-01-17T05:21:47.703Z,95029.28
2023-01-17T05:24:14.405Z,95027.75
2023-01-17T05:26:41.094Z,95034.56
2023-01-17T05:29:07.725Z,95044.47
2023-01-17T05:31:34.453Z,95047.22
2023-01-17T05:34:01.100Z,95048.03
2023-01-17T05:36:27.762Z,95054.41
2023-01-17T05:38:54.532Z,95066.16
2023-01-17T05:41:21.241Z,95061.66
2023-01-17T05:43:48.009Z,95070.19
2023-01-17T05:46:14.735Z,95074.88
2023-01-17T05:48:41.462Z,95075.84
2023-01-17T05:51:08.181Z,95077.38
2023-01-17T05:53:34.866Z,95078.81
2023-01-17T05:56:01.580Z,95088.28
2023-01-17T05:58:28.299Z,95088.69
2023-01-17T06:00:55.055Z,95088.94
2023-01-17T06:03:21.753Z,95100.66
2023-01-17T06:05:48.494Z,95107.38
2023-01-17T06:08:15.245Z,95110.41
2023-01-17T06:10:41.957Z,95121.88
2023-01-17T06:13:08.627Z,95129.56
2023-01-17T06:15:35.248Z,95133.78
2023-01-17T06:18:01.918Z,95137.56
2023-01-17T06:20:28.602Z,95130.25
2023-01-17T06:22:55.360Z,95122.69
2023-01-17T06:25:22.019Z,95127.38
2023-01-17T06:27:48.743Z,95121.25
2023-01-17T06:30:15.440Z,95124.69
2023-01-17T06:32:42.213Z,95111.09
2023-01-17T06:35:09.001Z,95121.94
2023-01-17T06:37:35.634Z,95123.75
2023-01-17T06:40:02.307Z,95122.34
2023-01-17T06:42:28.933Z,95116.59
2023-01-17T06:44:55.607Z,95134.34
2023-01-17T06:47:22.258Z,95133.69
2023-01-17T06:49:48.969Z,95133.78
2023-01-17T06:52:15.675Z,95133.50
2023-01-17T06:54:42.359Z,95139.09
2023-01-17T06:57:09.057Z,95140.09
2023-01-17T06:59:35.711Z,95146.06
2023-01-17T07:02:02.352Z,95154.91
2023-01-17T07:04:29.016Z,95148.50
2023-01-17T07:06:55.703Z,95147.19
2023-01-17T07:09:22.331Z,95148.22
2023-01-17T07:11:49.042Z,95151.34
2023-01-17T07:14:15.748Z,95153.81
2023-01-17T07:16:42.434Z,95160.84
2023-01-17T07:19:09.126Z,95170.25
2023-01-17T07:21:35.788Z,95184.38
2023-01-17T07:24:02.533Z,95190.50
2023-01-17T07:26:29.202Z,95198.66
2023-01-17T07:28:55.933Z,95204.69
2023-01-17T07:31:22.616Z,95203.28
2023-01-17T07:33:49.338Z,95198.66
2023-01-17T07:36:16.050Z,95198.47
2023-01-17T07:38:42.685Z,95204.06
2023-01-17T07:41:11.053Z,95204.50
2023-01-17T07:43:38.127Z,95207.09
2023-01-17T07:46:04.818Z,95197.66
2023-01-17T07:48:31.522Z,95188.00
2023-01-17T07:50:58.319Z,95177.50
2023-01-17T07:53:25.023Z,95178.06
2023-01-17T07:55:51.753Z,95177.50
2023-01-17T07:58:20.668Z,95186.31
2023-01-17T08:00:47.473Z,95181.03
2023-01-17T08:03:14.273Z,95183.00
2023-01-17T08:05:40.998Z,95176.00
2023-01-17T08:08:07.971Z,95180.28
2023-01-17T08:10:34.733Z,95183.25
2023-01-17T08:13:01.421Z,95181.84
2023-01-17T08:15:28.158Z,95188.66
2023-01-17T08:17:54.846Z,95188.41
2023-01-17T08:20:21.516Z,95193.47
2023-01-17T08:22:48.190Z,95196.28
2023-01-17T08:25:14.841Z,95194.06
2023-01-17T08:27:41.552Z,95200.19
2023-01-17T08:30:08.278Z,95195.59
2023-01-17T08:32:35.010Z,95190.97
2023-01-17T08:35:01.718Z,95198.72
2023-01-17T08:37:28.418Z,95195.47
2023-01-17T08:39:55.108Z,95199.34
2023-01-17T08:42:21.812Z,95206.19
2023-01-17T08:44:48.508Z,95193.19
2023-01-17T08:47:15.278Z,95200.00
2023-01-17T08:49:41.978Z,95202.63
2023-01-17T08:52:08.705Z,95200.09
2023-01-17T08:54:35.378Z,95204.31
2023-01-17T08:57:04.590Z,95185.78
2023-01-17T08:59:31.332Z,95190.13
2023-01-17T09:02:00.388Z,95193.53
2023-01-17T09:04:27.592Z,95207.66
2023-01-17T09:06:54.316Z,95206.41
2023-01-17T09:09:20.973Z,95206.00
2023-01-17T09:11:47.625Z,95204.91
2023-01-17T09:14:14.342Z,95209.75
2023-01-17T09:16:41.051Z,95212.34
2023-01-17T09:19:07.816Z,95214.31
2023-01-17T09:21:34.503Z,95214.09
2023-01-17T09:24:01.177Z,95227.03
2023-01-17T09:26:27.892Z,95210.41
2023-01-17T09:28:54.626Z,95212.13
2023-01-17T09:31:21.304Z,95200.16
2023-01-17T09:33:47.998Z,95188.91
2023-01-17T09:36:14.629Z,95168.69
2023-01-17T09:38:41.349Z,95165.81
2023-01-17T09:41:08.057Z,95161.97
2023-01-17T09:43:34.714Z,95168.41
2023-01-17T09:46:01.410Z,95156.28
2023-01-17T09:48:28.163Z,95142.56
2023-01-17T09:50:54.842Z,95144.38
2023-01-17T09:53:21.557Z,95128.13
2023-01-17T09:55:48.267Z,95135.38
2023-01-17T09:58:15.043Z,95136.63
2023-01-17T10:00:41.696Z,95134.47
2023-01-17T10:03:08.558Z,95135.75
2023-01-17T10:05:35.247Z,95140.38
2023-01-17T10:08:04.456Z,95126.66
2023-01-17T10:10:31.330Z,95123.00
2023-01-17T10:12:58.112Z,95128.56
2023-01-17T10:15:24.806Z,95126.41
2023-01-17T10:17:51.514Z,95124.00
2023-01-17T10:20:18.160Z,95126.63
2023-01-17T10:22:44.901Z,95131.19
2023-01-17T10:25:11.618Z,95149.72
2023-01-17T10:27:38.383Z,95151.22
2023-01-17T10:30:05.367Z,95152.13
2023-01-17T10:32:32.215Z,95146.22
2023-01-17T10:34:59.434Z,95147.34
2023-01-17T10:37:26.095Z,95139.84
2023-01-17T10:39:52.787Z,95137.00
2023-01-17T10:42:19.414Z,95122.88
2023-01-17T10:44:46.082Z,95118.66
2023-01-17T10:47:12.794Z,95110.34
2023-01-17T10:49:39.508Z,95113.53
2023-01-17T10:52:06.307Z,95116.16
2023-01-17T10:54:33.046Z,95120.03
2023-01-17T10:56:59.761Z,95120.94
2023-01-17T10:59:26.463Z,95128.09
2023-01-17T11:01:53.288Z,95119.44
2023-01-17T11:04:20.062Z,95101.06
2023-01-17T11:06:57.821Z,95098.44
2023-01-17T11:09:25.122Z,95087.16
2023-01-17T11:11:51.829Z,95085.22
2023-01-17T11:14:18.505Z,95078.13
2023-01-17T11:16:45.190Z,95070.31
2023-01-17T11:19:11.923Z,95067.94
2023-01-17T11:21:38.562Z,95067.78
2023-01-17T11:24:05.773Z,95053.75
2023-01-17T11:26:32.449Z,95048.34
2023-01-17T11:28:59.124Z,95025.06
2023-01-17T11:31:25.992Z,95024.38
2023-01-17T11:33:52.781Z,95035.72
2023-01-17T11:36:19.529Z,95036.03
2023-01-17T11:38:46.243Z,95034.22
2023-01-17T11:41:13.017Z,95024.19
2023-01-17T11:43:39.711Z,95014.34
2023-01-17T11:46:06.387Z,95004.75
2023-01-17T11:48:33.084Z,94995.00
2023-01-17T11:50:59.765Z,95006.06
2023-01-17T11:53:26.470Z,95017.78
2023-01-17T11:55:53.157Z,95032.72
2023-01-17T12:14:07.934Z,94975.16
2023-01-17T12:16:34.598Z,94989.56
2023-01-17T12:19:01.323Z,94985.75
2023-01-17T12:21:29.004Z,94973.91
2023-01-17T12:23:56.102Z,94998.19
2023-01-17T12:26:23.068Z,94996.94
2023-01-17T12:28:49.786Z,94998.88
2023-01-17T12:31:16.601Z,94998.09
2023-01-17T12:33:43.269Z,94999.78
2023-01-17T12:36:09.872Z,94998.31
2023-01-17T12:38:36.618Z,94998.22
2023-01-17T12:41:03.330Z,94983.06
2023-01-17T12:43:29.976Z,94970.72
2023-01-17T12:45:56.607Z,94964.34
2023-01-17T12:48:23.267Z,94961.44
2023-01-17T12:50:49.837Z,94960.22
2023-01-17T12:53:16.481Z,94960.81
2023-01-17T12:55:43.120Z,94952.44
2023-01-17T12:58:09.838Z,94943.75
2023-01-17T13:00:36.609Z,94945.44
2023-01-17T13:03:03.402Z,94950.81
2023-01-17T13:05:30.037Z,94946.78
2023-01-17T13:07:56.661Z,94943.94
2023-01-17T13:10:23.317Z,94939.00
2023-01-17T13:12:50.034Z,94934.00
2023-01-17T13:15:16.744Z,94923.25
2023-01-17T13:17:43.368Z,94916.25
2023-01-17T13:20:09.986Z,94906.69
2023-01-17T13:22:36.589Z,94908.94
2023-01-17T13:25:03.213Z,94899.59
2023-01-17T13:27:29.877Z,94892.38
2023-01-17T13:29:56.487Z,94888.63
2023-01-17T13:32:23.108Z,94881.03
2023-01-17T13:34:49.709Z,94872.97
2023-01-17T13:37:16.331Z,94861.56
2023-01-17T13:39:42.964Z,94846.59
2023-01-17T13:42:09.589Z,94846.44
2023-01-17T13:44:36.225Z,94840.28
2023-01-17T13:47:02.842Z,94831.09
2023-01-17T13:49:29.429Z,94831.88
2023-01-17T13:51:56.028Z,94828.25
2023-01-17T13:54:22.677Z,94830.13
2023-01-17T13:56:49.319Z,94831.44
2023-01-17T13:59:15.957Z,94822.00
2023-01-17T14:01:42.673Z,94822.41
2023-01-17T14:04:09.316Z,94813.75
2023-01-17T14:06:36.020Z,94807.28
2023-01-17T14:09:02.707Z,94804.84
2023-01-17T14:11:29.355Z,94801.94
2023-01-17T14:13:55.998Z,94790.34
2023-01-17T14:16:22.632Z,94784.75
2023-01-17T14:18:49.272Z,94768.91
2023-01-17T14:21:15.945Z,94753.59
2023-01-17T14:23:42.568Z,94737.59
2023-01-17T14:26:09.147Z,94736.19
2023-01-17T14:28:35.779Z,94750.22
2023-01-17T14:31:02.439Z,94747.91
2023-01-17T14:33:29.094Z,94743.78
2023-01-17T14:35:55.773Z,94741.06
2023-01-17T14:38:22.355Z,94750.47
2023-01-17T14:40:48.989Z,94748.09
2023-01-17T14:43:15.634Z,94745.75
2023-01-17T14:45:42.255Z,94735.97
2023-01-17T14:48:08.875Z,94734.22
2023-01-17T14:50:35.551Z,94730.88
2023-01-17T14:53:02.134Z,94732.09
2023-01-17T14:55:28.698Z,94726.94
2023-01-17T14:57:55.376Z,94732.72
2023-01-17T15:00:22.023Z,94729.06
2023-01-17T15:02:48.705Z,94736.78
2023-01-17T15:05:15.421Z,94744.72
2023-01-17T15:07:42.026Z,94743.13
2023-01-17T15:10:08.634Z,94740.59
2023-01-17T15:12:35.263Z,94744.22
2023-01-17T15:15:01.926Z,94746.84
2023-01-17T15:17:28.534Z,94742.63
2023-01-17T15:19:55.142Z,94748.97
2023-01-17T15:22:21.738Z,94750.31
2023-01-17T15:24:48.369Z,94743.03
2023-01-17T15:27:15.034Z,94740.69
2023-01-17T15:29:41.719Z,94734.84
2023-01-17T15:32:08.345Z,94741.34
2023-01-17T15:34:34.968Z,94744.09
2023-01-17T15:37:01.590Z,94746.88
2023-01-17T15:39:28.232Z,94746.22
2023-01-17T15:41:54.889Z,94740.50
2023-01-17T15:44:21.522Z,94743.69
2023-01-17T15:46:48.192Z,94744.97
2023-01-17T15:49:17.388Z,94744.66
2023-01-17T15:51:44.299Z,94744.50
2023-01-17T15:54:10.930Z,94745.06
2023-01-17T15:56:37.507Z,94732.44
2023-01-17T15:59:04.126Z,94739.13
2023-01-17T16:01:30.841Z,94742.25
2023-01-17T16:03:57.622Z,94737.50
2023-01-17T16:06:24.282Z,94738.13
2023-01-17T16:08:50.874Z,94753.03
2023-01-17T16:11:17.500Z,94749.84
2023-01-17T16:13:44.153Z,94759.72
2023-01-17T16:16:10.871Z,94765.03
2023-01-17T16:18:37.611Z,94757.75
2023-01-17T16:21:04.303Z,94759.53
2023-01-17T16:23:30.955Z,94762.13
2023-01-17T16:25:57.618Z,94766.38
2023-01-17T16:28:24.194Z,94765.22
2023-01-17T16:30:50.836Z,94757.56
2023-01-17T16:33:17.410Z,94758.28
2023-01-17T16:35:44.058Z,94761.31
2023-01-17T16:38:10.723Z,94757.44
2023-01-17T16:40:37.683Z,94766.94
2023-01-17T16:43:04.393Z,94769.56
2023-01-17T16:45:31.048Z,94770.84
2023-01-17T16:47:57.717Z,94775.09
2023-01-17T16:50:24.323Z,94767.16
2023-01-17T16:52:50.930Z,94773.34
2023-01-17T16:55:17.509Z,94772.00
2023-01-17T16:57:44.108Z,94755.84
2023-01-17T17:00:10.738Z,94741.31
2023-01-17T17:02:37.380Z,94738.91
2023-01-17T17:05:04.039Z,94738.97
2023-01-17T17:07:30.667Z,94728.03
2023-01-17T17:09:57.285Z,94721.53
2023-01-17T17:12:23.935Z,94706.00
2023-01-17T17:14:50.585Z,94708.16
2023-01-17T17:17:17.219Z,94699.69
2023-01-17T17:19:43.805Z,94701.13
2023-01-17T17:22:10.380Z,94703.28
2023-01-17T17:24:37.036Z,94712.00
2023-01-17T17:27:03.625Z,94705.09
2023-01-17T17:29:30.270Z,94695.09
2023-01-17T17:31:56.860Z,94698.28
2023-01-17T17:34:23.540Z,94695.44
2023-01-17T17:36:50.149Z,94693.94
2023-01-17T17:39:16.836Z,94693.56
2023-01-17T17:41:43.406Z,94701.63
2023-01-17T17:44:10.034Z,94712.72
2023-01-17T17:46:36.639Z,94710.38
2023-01-17T17:49:03.330Z,94708.03
2023-01-17T17:51:30.230Z,94697.00
2023-01-17T17:53:56.865Z,94696.38
2023-01-17T17:56:23.528Z,94693.28
2023-01-17T17:58:50.158Z,94699.81
2023-01-17T18:01:16.888Z,94699.81
2023-01-17T18:03:43.532Z,94696.06
2023-01-17T18:06:10.145Z,94693.59
2023-01-17T18:08:36.781Z,94691.75
2023-01-17T18:11:03.405Z,94681.00
2023-01-17T18:13:30.015Z,94685.91
2023-01-17T18:15:56.627Z,94690.13
2023-01-17T18:18:23.280Z,94691.56
2023-01-17T18:20:49.866Z,94700.06
2023-01-17T18:23:16.548Z,94702.38
2023-01-17T18:25:43.188Z,94702.69
2023-01-17T18:28:09.861Z,94684.97
2023-01-17T18:30:36.515Z,94690.78
2023-01-17T18:33:03.203Z,94695.78
2023-01-17T18:35:29.795Z,94688.03
2023-01-17T18:37:56.469Z,94690.19
2023-01-17T18:40:23.059Z,94684.06
2023-01-17T18:42:49.709Z,94672.25
2023-01-17T18:45:16.349Z,94671.59
2023-01-17T18:47:43.164Z,94671.13
2023-01-17T18:50:09.845Z,94679.22
2023-01-17T18:52:36.451Z,94677.53
2023-01-17T18:55:03.125Z,94679.78
2023-01-17T18:57:29.787Z,94673.78
2023-01-17T18:59:56.473Z,94674.34
2023-01-17T19:02:23.143Z,94678.56
2023-01-17T19:04:49.819Z,94675.59
2023-01-17T19:07:16.421Z,94669.09
2023-01-17T19:09:42.988Z,94664.34
2023-01-17T19:12:09.564Z,94660.47
2023-01-17T19:14:36.172Z,94664.13
2023-01-17T19:17:02.836Z,94659.94
2023-01-17T19:19:29.474Z,94663.38
2023-01-17T19:21:56.092Z,94657.47
2023-01-17T19:24:22.727Z,94652.13
2023-01-17T19:26:49.307Z,94657.00
2023-01-17T19:29:15.931Z,94650.00
2023-01-17T19:31:43.350Z,94649.44
2023-01-17T19:34:10.167Z,94652.41
2023-01-17T19:36:36.832Z,94656.47
2023-01-17T19:39:05.646Z,94649.78
2023-01-17T19:41:32.814Z,94645.09
2023-01-17T19:43:59.470Z,94653.06
2023-01-17T19:46:26.111Z,94646.50
2023-01-17T19:48:52.727Z,94638.63
2023-01-17T19:51:19.367Z,94633.66
2023-01-17T19:53:45.989Z,94633.75
2023-01-17T19:56:12.608Z,94634.25
2023-01-17T19:58:39.201Z,94628.09
2023-01-17T20:01:05.905Z,94630.59
2023-01-17T20:03:33.165Z,94634.31
2023-01-17T20:05:59.899Z,94634.56
2023-01-17T20:08:28.056Z,94634.88
2023-01-17T20:10:54.650Z,94640.13
2023-01-17T20:13:21.256Z,94645.56
2023-01-17T20:15:47.858Z,94644.91
2023-01-17T20:18:14.528Z,94636.75
2023-01-17T20:20:56.081Z,94634.16
2023-01-17T20:23:23.464Z,94625.06
2023-01-17T20:25:50.085Z,94620.06
2023-01-17T20:28:17.061Z,94615.72
2023-01-17T20:30:43.700Z,94617.66
2023-01-17T20:33:10.360Z,94615.03
2023-01-17T20:35:36.949Z,94612.88
2023-01-17T20:38:03.763Z,94606.84
2023-01-17T20:40:30.351Z,94605.75
2023-01-17T20:42:56.977Z,94607.56
2023-01-17T20:45:23.624Z,94602.34
2023-01-17T20:47:50.212Z,94605.75
2023-01-17T20:50:16.833Z,94607.34
2023-01-17T20:52:43.487Z,94602.34
2023-01-17T20:55:10.210Z,94605.47
2023-01-17T20:57:36.802Z,94597.53
2023-01-17T21:00:03.467Z,94584.00
2023-01-17T21:02:30.223Z,94583.75
2023-01-17T21:04:56.855Z,94593.84
2023-01-17T21:07:23.507Z,94594.97
2023-01-17T21:09:50.172Z,94588.97
2023-01-17T21:12:16.857Z,94589.06
2023-01-17T21:14:43.477Z,94593.81
2023-01-17T21:17:10.118Z,94593.31
2023-01-17T21:19:36.715Z,94585.91
2023-01-17T21:22:03.360Z,94584.09
2023-01-17T21:24:29.976Z,94585.94
2023-01-17T21:26:56.577Z,94587.91
2023-01-17T21:29:23.177Z,94584.84
2023-01-17T21:31:49.808Z,94577.78
2023-01-17T21:34:16.452Z,94588.09
2023-01-17T21:36:43.100Z,94598.16
2023-01-17T21:39:09.705Z,94600.63
2023-01-17T21:41:36.305Z,94603.03
2023-01-17T21:44:02.895Z,94606.75
2023-01-17T21:46:29.519Z,94600.09
2023-01-17T21:48:56.183Z,94595.84
2023-01-17T21:51:22.853Z,94591.41
2023-01-17T21:53:49.481Z,94591.72
2023-01-17T21:56:16.180Z,94588.19
2023-01-17T21:58:42.818Z,94584.69
2023-01-17T22:01:09.534Z,94575.72
2023-01-17T22:03:36.184Z,94580.31
2023-01-17T22:06:02.812Z,94573.63
2023-01-17T22:08:29.569Z,94575.53
2023-01-17T22:10:56.165Z,94575.53
2023-01-17T22:13:22.682Z,94579.28
2023-01-17T22:15:49.305Z,94569.22
2023-01-17T22:18:15.926Z,94555.81
2023-01-17T22:20:42.505Z,94559.31
2023-01-17T22:23:09.123Z,94553.00
2023-01-17T22:25:35.738Z,94546.19
2023-01-17T22:28:02.339Z,94552.78
2023-01-17T22:30:28.922Z,94561.50
2023-01-17T22:32:55.736Z,94565.56
2023-01-17T22:35:22.576Z,94570.53
2023-01-17T22:37:49.200Z,94568.34
2023-01-17T22:40:15.860Z,94566.72
2023-01-17T22:42:42.490Z,94570.75
2023-01-17T22:45:09.152Z,94571.31
2023-01-17T22:47:35.736Z,94561.06
2023-01-17T22:50:02.423Z,94561.28
2023-01-17T22:52:29.047Z,94560.41
2023-01-17T22:54:55.629Z,94556.53
2023-01-17T22:57:22.273Z,94547.59
2023-01-17T22:59:48.879Z,94546.97
2023-01-17T23:02:16.552Z,94540.19
2023-01-17T23:04:43.359Z,94544.88
2023-01-17T23:07:09.983Z,94546.78
2023-01-17T23:09:36.611Z,94545.53
2023-01-17T23:12:03.331Z,94539.09
2023-01-17T23:14:29.951Z,94549.13
2023-01-17T23:16:56.600Z,94547.72
2023-01-17T23:19:23.191Z,94547.13
2023-01-17T23:21:49.813Z,94554.50
2023-01-17T23:24:16.426Z,94537.94
2023-01-17T23:26:43.031Z,94544.41
2023-01-17T23:29:09.642Z,94534.53
2023-01-17T23:31:36.297Z,94537.59
2023-01-17T23:34:02.948Z,94533.81
2023-01-17T23:36:29.525Z,94519.41
2023-01-17T23:38:56.117Z,94533.81
2023-01-17T23:41:22.765Z,94533.16
2023-01-17T23:43:49.404Z,94532.78
2023-01-17T23:46:16.022Z,94526.72
2023-01-17T23:48:42.689Z,94524.28
2023-01-17T23:51:09.319Z,94519.63
2023-01-17T23:53:35.977Z,94534.81
2023-01-17T23:56:02.563Z,94527.88
2023-01-17T23:58:29.135Z,94538.91
